Time;durP1;ratioP1;P1;durP2;ratioP2;P2;SDS_P1;SDS_P2;PMS_P1;PMS_P2;Temp;Humidity;BMP_temperature;BMP_pressure;BME280_temperature;BME280_humidity;BME280_pressure;Samples;Min_cycle;Max_cycle;Signal;HPM_P1;HPM_P2
2023/09/01 00:00:49;;;;;;;5.82;3.35;;;;;;;;;;5071360;28;20044;-62
2023/09/01 00:03:16;;;;;;;5.63;3.33;;;;;;;;;;5070976;28;20094;-62
2023/09/01 00:05:42;;;;;;;5.63;3.50;;;;;;;;;;5071737;28;20052;-62
2023/09/01 00:08:08;;;;;;;6.82;4.00;;;;;;;;;;5071517;28;20040;-62
2023/09/01 00:10:39;;;;;;;7.03;3.58;;;;;;;;;;5071151;28;20356;-62
2023/09/01 00:13:05;;;;;;;7.30;3.72;;;;;;;;;;5071541;28;20481;-62
2023/09/01 00:15:31;;;;;;;5.20;4.00;;;;;;;;;;5075750;28;20033;-62
2023/09/01 00:17:58;;;;;;;5.38;4.00;;;;;;;;;;5074798;28;20047;-62
2023/09/01 00:20:24;;;;;;;5.75;3.55;;;;;;;;;;5075474;28;20052;-62
2023/09/01 00:22:50;;;;;;;5.47;3.65;;;;;;;;;;5075650;28;20083;-62
2023/09/01 00:25:16;;;;;;;5.82;3.60;;;;;;;;;;5077025;28;20072;-62
2023/09/01 00:27:42;;;;;;;5.32;3.35;;;;;;;;;;5095778;28;20105;-62
2023/09/01 00:30:09;;;;;;;7.50;3.92;;;;;;;;;;5095139;28;20060;-62
2023/09/01 00:32:35;;;;;;;6.53;3.40;;;;;;;;;;5094801;28;20047;-62
2023/09/01 00:35:03;;;;;;;6.93;3.47;;;;;;;;;;5095621;28;20035;-62
2023/09/01 00:37:29;;;;;;;4.78;3.45;;;;;;;;;;5095414;28;20052;-62
2023/09/01 00:39:55;;;;;;;4.90;3.40;;;;;;;;;;5094905;28;20047;-62
2023/09/01 00:42:21;;;;;;;6.25;3.35;;;;;;;;;;5095421;28;20040;-62
2023/09/01 00:44:48;;;;;;;7.45;3.58;;;;;;;;;;5095345;28;20040;-62
2023/09/01 00:47:14;;;;;;;4.88;3.47;;;;;;;;;;5094957;28;20420;-62
2023/09/01 00:49:41;;;;;;;5.45;3.33;;;;;;;;;;5085614;28;20478;-62
2023/09/01 00:52:07;;;;;;;5.63;2.97;;;;;;;;;;5074828;28;20072;-62
2023/09/01 00:54:34;;;;;;;4.88;3.20;;;;;;;;;;5074555;28;20075;-62
2023/09/01 00:57:00;;;;;;;5.22;3.58;;;;;;;;;;5074605;28;20135;-62
2023/09/01 00:59:27;;;;;;;6.80;3.50;;;;;;;;;;5074792;28;20123;-62
2023/09/01 01:01:54;;;;;;;6.90;3.20;;;;;;;;;;5073963;28;20045;-62
2023/09/01 01:04:20;;;;;;;4.78;3.25;;;;;;;;;;5074376;28;20122;-62
2023/09/01 01:06:56;;;;;;;6.35;3.60;;;;;;;;;;5074749;28;20036;-62
2023/09/01 01:09:29;;;;;;;6.60;3.38;;;;;;;;;;5074283;28;20368;-62
2023/09/01 01:12:10;;;;;;;5.40;3.28;;;;;;;;;;5074503;28;20471;-62
2023/09/01 01:14:48;;;;;;;5.88;3.28;;;;;;;;;;5074733;28;20044;-62
2023/09/01 01:17:18;;;;;;;5.35;3.13;;;;;;;;;;5074221;28;20055;-62
2023/09/01 01:19:52;;;;;;;6.22;3.90;;;;;;;;;;5074594;28;20063;-62
2023/09/01 01:22:44;;;;;;;7.63;3.92;;;;;;;;;;5074276;28;20415;-62
2023/09/01 01:25:11;;;;;;;3.38;3.08;;;;;;;;;;5066292;28;20082;-62
2023/09/01 01:27:38;;;;;;;4.18;3.35;;;;;;;;;;5093122;28;20707;-62
2023/09/01 01:30:07;;;;;;;5.40;3.70;;;;;;;;;;5094112;28;20083;-62
2023/09/01 01:32:34;;;;;;;4.88;3.55;;;;;;;;;;5093938;28;20140;-62
2023/09/01 01:35:19;;;;;;;5.47;3.90;;;;;;;;;;5094078;28;20036;-62
2023/09/01 01:37:50;;;;;;;5.35;3.75;;;;;;;;;;5094396;28;20063;-62
2023/09/01 01:40:17;;;;;;;6.07;3.13;;;;;;;;;;5094005;28;20386;-62
2023/09/01 01:42:46;;;;;;;7.95;3.70;;;;;;;;;;5094075;28;20491;-62
2023/09/01 01:45:14;;;;;;;3.70;3.08;;;;;;;;;;5093712;28;20048;-62
2023/09/01 01:47:40;;;;;;;8.60;3.70;;;;;;;;;;5093863;28;20044;-62
2023/09/01 01:50:07;;;;;;;4.82;3.70;;;;;;;;;;5082178;28;20659;-62
2023/09/01 01:52:33;;;;;;;5.45;3.92;;;;;;;;;;5073871;28;20044;-62
2023/09/01 01:54:59;;;;;;;4.40;3.47;;;;;;;;;;5073361;28;20047;-62
2023/09/01 01:57:25;;;;;;;5.72;3.65;;;;;;;;;;5073656;28;20044;-62
2023/09/01 01:59:51;;;;;;;8.45;4.65;;;;;;;;;;5073632;28;20036;-62
2023/09/01 02:02:17;;;;;;;6.18;4.35;;;;;;;;;;5073246;28;20086;-62
2023/09/01 02:04:43;;;;;;;4.47;3.88;;;;;;;;;;5073265;28;20047;-62
2023/09/01 02:07:09;;;;;;;5.65;4.32;;;;;;;;;;5073615;28;20431;-62
2023/09/01 02:09:35;;;;;;;5.30;4.10;;;;;;;;;;5072954;28;20052;-62
2023/09/01 02:12:02;;;;;;;4.95;4.22;;;;;;;;;;5073370;28;20380;-62
2023/09/01 02:14:28;;;;;;;6.40;4.22;;;;;;;;;;5073492;28;20063;-62
2023/09/01 02:16:54;;;;;;;5.28;3.83;;;;;;;;;;5072981;28;20475;-62
2023/09/01 02:19:20;;;;;;;8.00;3.63;;;;;;;;;;5073043;28;20041;-62
2023/09/01 02:21:46;;;;;;;6.05;4.38;;;;;;;;;;5073354;28;20047;-62
2023/09/01 02:24:12;;;;;;;6.32;4.30;;;;;;;;;;5072996;28;20048;-62
2023/09/01 02:26:38;;;;;;;6.65;3.65;;;;;;;;;;5086778;28;20044;-62
2023/09/01 02:29:05;;;;;;;7.53;4.10;;;;;;;;;;5093145;28;20052;-62
2023/09/01 02:31:31;;;;;;;5.38;4.10;;;;;;;;;;5092689;28;20464;-62
2023/09/01 02:33:57;;;;;;;10.00;4.55;;;;;;;;;;5093210;28;20474;-62
2023/09/01 02:36:36;;;;;;;6.38;4.43;;;;;;;;;;5092426;28;20051;-62
2023/09/01 02:39:04;;;;;;;5.55;4.00;;;;;;;;;;5091472;28;20386;-62
2023/09/01 02:41:30;;;;;;;5.75;4.15;;;;;;;;;;5092821;28;20527;-62
2023/09/01 02:43:57;;;;;;;4.55;3.90;;;;;;;;;;5093031;28;20493;-62
2023/09/01 02:46:23;;;;;;;6.00;4.35;;;;;;;;;;5092703;28;20040;-62
2023/09/01 02:48:50;;;;;;;10.48;4.13;;;;;;;;;;5091801;28;20435;-62
2023/09/01 02:51:16;;;;;;;7.13;4.15;;;;;;;;;;5072526;28;20036;-62
2023/09/01 02:53:42;;;;;;;5.88;4.10;;;;;;;;;;5072022;28;20070;-62
2023/09/01 02:56:08;;;;;;;7.32;4.70;;;;;;;;;;5072602;28;20611;-62
2023/09/01 02:58:34;;;;;;;6.32;4.15;;;;;;;;;;5072387;28;20086;-62
2023/09/01 03:01:07;;;;;;;8.77;4.25;;;;;;;;;;5072186;28;20037;-62
2023/09/01 03:03:34;;;;;;;7.60;4.72;;;;;;;;;;5072389;28;20109;-62
2023/09/01 03:06:00;;;;;;;5.72;4.32;;;;;;;;;;5072369;28;20067;-62
2023/09/01 03:08:26;;;;;;;6.82;4.70;;;;;;;;;;5072004;28;20505;-62
2023/09/01 03:10:53;;;;;;;7.82;4.28;;;;;;;;;;5072306;28;20040;-62
2023/09/01 03:13:20;;;;;;;6.43;4.22;;;;;;;;;;5072210;28;20048;-62
2023/09/01 03:15:46;;;;;;;7.10;4.78;;;;;;;;;;5071893;28;20121;-62
2023/09/01 03:18:12;;;;;;;8.23;4.75;;;;;;;;;;5072221;28;20053;-62
2023/09/01 03:20:38;;;;;;;6.75;4.80;;;;;;;;;;5072065;28;20046;-62
2023/09/01 03:23:04;;;;;;;6.53;4.05;;;;;;;;;;5071753;28;20041;-62
2023/09/01 03:25:30;;;;;;;7.65;4.60;;;;;;;;;;5076021;28;20043;-62
2023/09/01 03:27:56;;;;;;;5.20;4.53;;;;;;;;;;5092282;28;20040;-62
2023/09/01 03:30:22;;;;;;;5.38;4.53;;;;;;;;;;5091247;28;20083;-62
2023/09/01 03:32:49;;;;;;;8.93;4.85;;;;;;;;;;5092131;28;20432;-62
2023/09/01 03:35:15;;;;;;;5.70;4.43;;;;;;;;;;5090871;28;20458;-62
2023/09/01 03:37:42;;;;;;;7.32;4.82;;;;;;;;;;5091759;28;20038;-62
2023/09/01 03:40:09;;;;;;;6.53;5.00;;;;;;;;;;5091948;28;20110;-62
2023/09/01 03:42:36;;;;;;;6.68;4.38;;;;;;;;;;5091814;28;20044;-62
2023/09/01 03:45:02;;;;;;;10.57;5.20;;;;;;;;;;5091465;28;20048;-62
2023/09/01 03:47:28;;;;;;;6.70;5.07;;;;;;;;;;5091647;28;20040;-62
2023/09/01 03:49:54;;;;;;;6.88;4.90;;;;;;;;;;5081215;28;20391;-62
2023/09/01 03:52:20;;;;;;;7.45;4.28;;;;;;;;;;5070864;28;20053;-62
2023/09/01 03:54:46;;;;;;;6.13;4.38;;;;;;;;;;5071670;28;20033;-62
2023/09/01 03:57:12;;;;;;;6.20;4.50;;;;;;;;;;5071728;28;20519;-62
2023/09/01 03:59:38;;;;;;;6.45;4.60;;;;;;;;;;5071209;28;20105;-62
2023/09/01 04:02:04;;;;;;;5.82;4.82;;;;;;;;;;5071556;28;20040;-62
2023/09/01 04:04:30;;;;;;;8.35;4.65;;;;;;;;;;5071450;28;20422;-62
2023/09/01 04:06:56;;;;;;;7.45;4.22;;;;;;;;;;5071156;28;20076;-62
2023/09/01 04:09:23;;;;;;;6.25;4.30;;;;;;;;;;5070329;28;20045;-62
2023/09/01 04:11:49;;;;;;;6.97;4.80;;;;;;;;;;5071336;28;20045;-62
2023/09/01 04:14:15;;;;;;;8.90;4.80;;;;;;;;;;5069709;28;20040;-62
2023/09/01 04:16:41;;;;;;;7.13;4.60;;;;;;;;;;5071466;28;20701;-62
2023/09/01 04:19:07;;;;;;;6.30;4.90;;;;;;;;;;5071527;28;20127;-62
2023/09/01 04:21:33;;;;;;;5.78;4.47;;;;;;;;;;5069632;28;20043;-62
2023/09/01 04:23:59;;;;;;;6.93;4.38;;;;;;;;;;5071048;28;20036;-62
2023/09/01 04:26:25;;;;;;;6.90;4.45;;;;;;;;;;5082997;28;20123;-62
2023/09/01 04:28:51;;;;;;;5.50;3.95;;;;;;;;;;5090620;28;20055;-62
2023/09/01 04:31:26;;;;;;;7.93;4.53;;;;;;;;;;5091204;28;20040;-62
2023/09/01 04:33:52;;;;;;;5.05;4.45;;;;;;;;;;5089816;28;20044;-62
2023/09/01 04:36:18;;;;;;;10.27;4.63;;;;;;;;;;5090541;28;20525;-62
2023/09/01 04:38:44;;;;;;;8.20;4.40;;;;;;;;;;5091306;28;20685;-62
2023/09/01 04:41:10;;;;;;;7.28;4.85;;;;;;;;;;5091332;28;20131;-62
2023/09/01 04:43:36;;;;;;;6.03;4.88;;;;;;;;;;5091011;28;20646;-62
2023/09/01 04:46:02;;;;;;;7.05;4.70;;;;;;;;;;5091421;28;20051;-62
2023/09/01 04:48:30;;;;;;;7.82;4.45;;;;;;;;;;5091431;28;20040;-62
2023/09/01 04:50:56;;;;;;;7.55;5.00;;;;;;;;;;5070998;28;20049;-62
2023/09/01 04:53:22;;;;;;;6.88;4.47;;;;;;;;;;5070917;28;20513;-62
2023/09/01 04:55:49;;;;;;;5.28;4.78;;;;;;;;;;5071212;28;20041;-62
2023/09/01 04:58:15;;;;;;;5.18;4.68;;;;;;;;;;5070773;28;20402;-62
2023/09/01 05:00:41;;;;;;;7.38;4.88;;;;;;;;;;5073492;28;20068;-62
2023/09/01 05:03:07;;;;;;;7.28;4.82;;;;;;;;;;5074545;28;20036;-62
2023/09/01 05:05:34;;;;;;;6.13;4.80;;;;;;;;;;5074193;28;20041;-62
2023/09/01 05:08:00;;;;;;;6.80;5.55;;;;;;;;;;5074716;28;20441;-62
2023/09/01 05:10:26;;;;;;;11.35;5.15;;;;;;;;;;5074583;28;20044;-62
2023/09/01 05:12:52;;;;;;;9.23;5.82;;;;;;;;;;5072696;28;20047;-62
2023/09/01 05:15:18;;;;;;;9.18;5.65;;;;;;;;;;5074486;28;20122;-62
2023/09/01 05:17:45;;;;;;;9.80;5.18;;;;;;;;;;5074332;28;20045;-62
2023/09/01 05:20:11;;;;;;;10.13;5.63;;;;;;;;;;5074046;28;20386;-62
2023/09/01 05:22:37;;;;;;;10.38;5.72;;;;;;;;;;5074361;28;20037;-62
2023/09/01 05:25:03;;;;;;;6.50;4.90;;;;;;;;;;5074484;28;20098;-63
2023/09/01 05:27:29;;;;;;;14.25;5.65;;;;;;;;;;5094013;28;20101;-63
2023/09/01 05:29:55;;;;;;;7.00;5.05;;;;;;;;;;5094089;28;20084;-63
2023/09/01 05:32:22;;;;;;;6.68;5.03;;;;;;;;;;5093891;28;20052;-62
2023/09/01 05:34:48;;;;;;;12.38;5.47;;;;;;;;;;5093759;28;20067;-63
2023/09/01 05:37:14;;;;;;;7.15;5.28;;;;;;;;;;5094343;28;20044;-62
2023/09/01 05:39:41;;;;;;;9.98;5.32;;;;;;;;;;5094371;28;20369;-62
2023/09/01 05:42:10;;;;;;;10.02;5.18;;;;;;;;;;5092847;28;20463;-62
2023/09/01 05:44:37;;;;;;;6.75;5.20;;;;;;;;;;5094099;28;20075;-62
2023/09/01 05:47:04;;;;;;;8.50;5.35;;;;;;;;;;5094231;28;20040;-62
2023/09/01 05:49:33;;;;;;;8.40;5.32;;;;;;;;;;5087419;28;20033;-62
2023/09/01 05:52:00;;;;;;;8.45;5.45;;;;;;;;;;5073503;28;20117;-62
2023/09/01 05:54:26;;;;;;;8.05;5.60;;;;;;;;;;5073890;28;20048;-62
2023/09/01 05:56:52;;;;;;;7.47;5.47;;;;;;;;;;5073758;28;20458;-62
2023/09/01 05:59:18;;;;;;;15.65;5.97;;;;;;;;;;5072950;28;20036;-62
2023/09/01 06:01:44;;;;;;;7.95;5.50;;;;;;;;;;5073275;28;20044;-62
2023/09/01 06:04:11;;;;;;;8.63;5.43;;;;;;;;;;5073471;28;20040;-62
2023/09/01 06:06:37;;;;;;;11.98;6.55;;;;;;;;;;5073175;28;20048;-62
2023/09/01 06:09:04;;;;;;;7.95;5.88;;;;;;;;;;5073578;28;20045;-62
2023/09/01 06:11:30;;;;;;;10.98;6.55;;;;;;;;;;5072216;28;20036;-62
2023/09/01 06:13:56;;;;;;;12.18;6.55;;;;;;;;;;5073145;28;20688;-62
2023/09/01 06:16:22;;;;;;;9.45;6.10;;;;;;;;;;5073257;28;20040;-62
2023/09/01 06:18:48;;;;;;;8.00;6.38;;;;;;;;;;5073005;28;20037;-62
2023/09/01 06:21:17;;;;;;;9.93;6.47;;;;;;;;;;5072937;28;20032;-62
2023/09/01 06:23:47;;;;;;;10.45;6.40;;;;;;;;;;5072977;28;20145;-63
2023/09/01 06:26:13;;;;;;;11.32;6.22;;;;;;;;;;5080481;28;20082;-64
2023/09/01 06:28:42;;;;;;;12.18;6.50;;;;;;;;;;5091824;28;20056;-65
2023/09/01 06:31:09;;;;;;;9.82;6.03;;;;;;;;;;5093083;28;20062;-64
2023/09/01 06:33:38;;;;;;;9.45;6.82;;;;;;;;;;5092554;28;20040;-63
2023/09/01 06:36:05;;;;;;;9.63;7.32;;;;;;;;;;5091964;28;20036;-63
2023/09/01 06:38:31;;;;;;;13.05;8.15;;;;;;;;;;5092957;28;20394;-62
2023/09/01 06:40:57;;;;;;;14.50;8.90;;;;;;;;;;5092229;28;20040;-65
2023/09/01 06:43:23;;;;;;;15.68;10.48;;;;;;;;;;5091765;28;20039;-64
2023/09/01 06:45:49;;;;;;;18.30;10.18;;;;;;;;;;5092042;28;20059;-64
2023/09/01 06:48:15;;;;;;;17.83;10.27;;;;;;;;;;5080440;28;20071;-64
2023/09/01 06:50:41;;;;;;;20.42;11.55;;;;;;;;;;5086177;28;20590;-64
2023/09/01 06:53:07;;;;;;;13.00;10.55;;;;;;;;;;5084567;28;20063;-63
2023/09/01 06:55:33;;;;;;;15.60;11.73;;;;;;;;;;5076668;28;20493;-64
2023/09/01 06:57:59;;;;;;;18.30;13.00;;;;;;;;;;5091562;28;20040;-65
2023/09/01 07:00:25;;;;;;;19.83;13.15;;;;;;;;;;5091070;28;20048;-64
2023/09/01 07:02:51;;;;;;;19.55;14.32;;;;;;;;;;5092487;28;20382;-65
2023/09/01 07:05:17;;;;;;;20.52;14.60;;;;;;;;;;5090669;28;20044;-64
2023/09/01 07:07:44;;;;;;;19.70;14.52;;;;;;;;;;5091493;28;20378;-66
2023/09/01 07:10:10;;;;;;;23.38;15.40;;;;;;;;;;5091267;28;20067;-63
2023/09/01 07:12:36;;;;;;;21.50;16.25;;;;;;;;;;5089349;28;20048;-63
2023/09/01 07:15:04;;;;;;;25.60;17.38;;;;;;;;;;5092070;28;20487;-63
2023/09/01 07:17:30;;;;;;;25.73;17.55;;;;;;;;;;5091181;28;20552;-63
2023/09/01 07:19:56;;;;;;;30.52;18.95;;;;;;;;;;5090745;28;20040;-63
2023/09/01 07:22:22;;;;;;;25.98;17.73;;;;;;;;;;5091298;28;20044;-63
2023/09/01 07:24:48;;;;;;;29.65;18.77;;;;;;;;;;5091172;28;20560;-64
2023/09/01 07:27:15;;;;;;;24.15;17.75;;;;;;;;;;5075067;28;20069;-63
2023/09/01 07:29:41;;;;;;;27.23;18.08;;;;;;;;;;5087517;28;20056;-64
2023/09/01 07:32:07;;;;;;;25.17;18.20;;;;;;;;;;5091269;28;20127;-64
2023/09/01 07:34:34;;;;;;;21.92;17.02;;;;;;;;;;5090836;28;20606;-63
2023/09/01 07:37:00;;;;;;;28.38;16.42;;;;;;;;;;5090008;28;20097;-65
2023/09/01 07:39:26;;;;;;;23.88;16.30;;;;;;;;;;5089342;28;20051;-63
2023/09/01 07:41:52;;;;;;;22.15;15.25;;;;;;;;;;5089765;28;20044;-65
2023/09/01 07:44:20;;;;;;;20.08;15.40;;;;;;;;;;5090177;28;20101;-64
2023/09/01 07:46:46;;;;;;;26.27;16.13;;;;;;;;;;5091191;28;20047;-63
2023/09/01 07:49:12;;;;;;;23.65;14.75;;;;;;;;;;5085281;28;20516;-64
2023/09/01 07:51:38;;;;;;;16.17;11.82;;;;;;;;;;5084956;28;20573;-64
2023/09/01 07:54:05;;;;;;;20.33;12.27;;;;;;;;;;5085120;28;20051;-63
2023/09/01 07:56:32;;;;;;;15.75;11.50;;;;;;;;;;5091062;28;20043;-63
2023/09/01 07:58:58;;;;;;;15.20;10.85;;;;;;;;;;5090495;28;20043;-63
2023/09/01 08:01:24;;;;;;;19.17;11.68;;;;;;;;;;5090046;28;20454;-62
2023/09/01 08:03:50;;;;;;;17.15;9.98;;;;;;;;;;5090838;28;20036;-63
2023/09/01 08:06:16;;;;;;;13.52;9.98;;;;;;;;;;5087893;28;20048;-63
2023/09/01 08:08:42;;;;;;;19.73;9.23;;;;;;;;;;5091152;28;20596;-63
2023/09/01 08:11:08;;;;;;;12.80;9.05;;;;;;;;;;5088228;28;20040;-64
2023/09/01 08:13:34;;;;;;;13.23;9.20;;;;;;;;;;5088242;28;20497;-63
2023/09/01 08:16:00;;;;;;;20.45;10.05;;;;;;;;;;5091199;28;20423;-63
2023/09/01 08:18:27;;;;;;;18.70;9.82;;;;;;;;;;5089971;28;20062;-64
2023/09/01 08:20:53;;;;;;;15.18;9.75;;;;;;;;;;5090801;28;20122;-63
2023/09/01 08:23:21;;;;;;;15.30;10.88;;;;;;;;;;5090038;28;20044;-65
2023/09/01 08:25:48;;;;;;;18.58;10.90;;;;;;;;;;5089290;28;20055;-64
2023/09/01 08:28:14;;;;;;;15.43;10.93;;;;;;;;;;5089793;28;20045;-64
2023/09/01 08:30:40;;;;;;;19.65;11.02;;;;;;;;;;5083864;28;20439;-64
2023/09/01 08:33:06;;;;;;;16.38;11.65;;;;;;;;;;5090618;28;20062;-64
2023/09/01 08:35:32;;;;;;;18.48;12.65;;;;;;;;;;5092196;28;20041;-63
2023/09/01 08:37:58;;;;;;;20.50;13.45;;;;;;;;;;5094418;28;20499;-63
2023/09/01 08:40:24;;;;;;;21.92;13.75;;;;;;;;;;5093897;28;20511;-63
2023/09/01 08:42:50;;;;;;;20.10;12.80;;;;;;;;;;5092901;28;20115;-64
2023/09/01 08:45:17;;;;;;;18.05;11.48;;;;;;;;;;5094472;28;20467;-63
2023/09/01 08:47:45;;;;;;;17.80;12.25;;;;;;;;;;5090063;28;20043;-66
2023/09/01 08:50:11;;;;;;;19.75;13.80;;;;;;;;;;5088514;28;20126;-64
2023/09/01 08:52:38;;;;;;;19.98;13.13;;;;;;;;;;5094859;28;20086;-64
2023/09/01 08:55:05;;;;;;;22.90;13.82;;;;;;;;;;5093460;28;20075;-64
2023/09/01 08:57:32;;;;;;;20.90;13.80;;;;;;;;;;5093933;28;20811;-65
2023/09/01 08:59:58;;;;;;;24.63;13.68;;;;;;;;;;5092516;28;20118;-64
2023/09/01 09:02:24;;;;;;;22.55;13.82;;;;;;;;;;5092541;28;20047;-63
2023/09/01 09:04:50;;;;;;;15.90;12.32;;;;;;;;;;5094193;28;20036;-64
2023/09/01 09:07:17;;;;;;;22.90;13.68;;;;;;;;;;5090860;28;20044;-63
2023/09/01 09:09:50;;;;;;;20.30;13.02;;;;;;;;;;5093740;28;20048;-63
2023/09/01 09:12:16;;;;;;;;;;;;;;;;;;5094806;28;20390;-63
2023/09/01 09:14:51;;;;;;;19.55;11.95;;;;;;;;;;5094946;28;19916;-64
2023/09/01 09:17:17;;;;;;;18.27;12.00;;;;;;;;;;5092761;28;20495;-65
2023/09/01 09:20:00;;;;;;;22.17;12.85;;;;;;;;;;5093801;28;20036;-64
2023/09/01 09:22:26;;;;;;;17.67;11.88;;;;;;;;;;5090207;28;20044;-64
2023/09/01 09:24:52;;;;;;;18.92;11.75;;;;;;;;;;5093888;28;20039;-64
2023/09/01 09:27:20;;;;;;;18.00;11.75;;;;;;;;;;5087399;28;20050;-64
2023/09/01 09:29:48;;;;;;;17.38;12.68;;;;;;;;;;5092619;28;20056;-65
2023/09/01 09:32:20;;;;;;;20.02;13.65;;;;;;;;;;5091626;28;20052;-64
2023/09/01 09:34:46;;;;;;;;;;;;;;;;;;5093844;28;20043;-64
2023/09/01 09:37:16;;;;;;;21.70;13.77;;;;;;;;;;5094299;28;19927;-64
2023/09/01 09:39:43;;;;;;;21.20;13.38;;;;;;;;;;5093241;28;20044;-63
2023/09/01 09:42:09;;;;;;;23.38;13.30;;;;;;;;;;5093482;28;20044;-64
2023/09/01 09:44:35;;;;;;;22.23;14.18;;;;;;;;;;5093865;28;20040;-64
2023/09/01 09:47:07;;;;;;;19.95;12.90;;;;;;;;;;5091638;28;20481;-65
2023/09/01 09:49:34;;;;;;;21.90;13.57;;;;;;;;;;5086211;28;20051;-65
2023/09/01 09:52:01;;;;;;;21.52;12.73;;;;;;;;;;5089584;28;20135;-66
2023/09/01 09:54:29;;;;;;;21.63;12.95;;;;;;;;;;5093029;28;20617;-65
2023/09/01 09:56:57;;;;;;;20.98;13.63;;;;;;;;;;5093639;28;20040;-65
2023/09/01 09:59:32;;;;;;;21.45;12.27;;;;;;;;;;5093237;28;20558;-63
2023/09/01 10:02:00;;;;;;;23.65;13.52;;;;;;;;;;5093379;28;20043;-65
2023/09/01 10:04:27;;;;;;;22.83;11.82;;;;;;;;;;5091859;28;20059;-64
2023/09/01 10:06:54;;;;;;;22.58;12.10;;;;;;;;;;5093140;28;20040;-64
2023/09/01 10:09:20;;;;;;;19.83;12.48;;;;;;;;;;5091844;28;20131;-62
2023/09/01 10:11:47;;;;;;;19.75;11.68;;;;;;;;;;5092952;28;20394;-64
2023/09/01 10:14:13;;;;;;;17.88;12.60;;;;;;;;;;5093235;28;20048;-64
2023/09/01 10:16:40;;;;;;;22.63;12.55;;;;;;;;;;5092521;28;20364;-63
2023/09/01 10:19:09;;;;;;;20.75;12.18;;;;;;;;;;5091458;28;20123;-64
2023/09/01 10:21:35;;;;;;;21.08;10.93;;;;;;;;;;5093060;28;20085;-64
2023/09/01 10:24:02;;;;;;;18.15;9.95;;;;;;;;;;5092445;28;20040;-64
2023/09/01 10:26:28;;;;;;;18.00;9.10;;;;;;;;;;5081203;28;20034;-63
2023/09/01 10:29:01;;;;;;;16.20;9.50;;;;;;;;;;5092220;28;20063;-63
2023/09/01 10:31:34;;;;;;;21.42;9.32;;;;;;;;;;5091980;28;20067;-63
2023/09/01 10:34:08;;;;;;;19.65;9.60;;;;;;;;;;5093008;28;20376;-63
2023/09/01 10:36:34;;;;;;;13.38;9.57;;;;;;;;;;5092540;28;20066;-65
2023/09/01 10:39:21;;;;;;;20.27;10.32;;;;;;;;;;5091840;28;20054;-64
2023/09/01 10:41:50;;;;;;;18.65;10.43;;;;;;;;;;5092859;28;20040;-64
2023/09/01 10:44:16;;;;;;;16.73;10.18;;;;;;;;;;5092382;28;20490;-63
2023/09/01 10:46:42;;;;;;;16.67;9.88;;;;;;;;;;5092143;28;20494;-63
2023/09/01 10:49:10;;;;;;;14.70;9.15;;;;;;;;;;5088407;28;20036;-64
2023/09/01 10:51:37;;;;;;;15.95;8.18;;;;;;;;;;5078507;28;20479;-64
2023/09/01 10:54:23;;;;;;;19.98;8.75;;;;;;;;;;5091183;28;20401;-64
2023/09/01 10:56:59;;;;;;;18.05;8.63;;;;;;;;;;5086396;28;20047;-64
2023/09/01 10:59:29;;;;;;;14.18;8.57;;;;;;;;;;5091528;28;20035;-63
2023/09/01 11:01:55;;;;;;;16.60;10.05;;;;;;;;;;5091115;28;20094;-64
2023/09/01 11:04:21;;;;;;;12.88;9.40;;;;;;;;;;5091139;28;20833;-64
2023/09/01 11:06:59;;;;;;;15.60;9.55;;;;;;;;;;5091122;28;20038;-63
2023/09/01 11:09:35;;;;;;;18.67;10.40;;;;;;;;;;5075481;28;20455;-63
2023/09/01 11:12:05;;;;;;;18.50;10.98;;;;;;;;;;5090923;28;20040;-63
2023/09/01 11:14:31;;;;;;;18.80;11.75;;;;;;;;;;5090965;28;20679;-64
2023/09/01 11:17:00;;;;;;;15.85;11.05;;;;;;;;;;5090615;28;20036;-66
2023/09/01 11:19:26;;;;;;;16.65;10.27;;;;;;;;;;5090931;28;21167;-66
2023/09/01 11:21:52;;;;;;;15.00;9.23;;;;;;;;;;5089745;28;20046;-64
2023/09/01 11:24:22;;;;;;;14.05;8.13;;;;;;;;;;5086963;28;20397;-64
2023/09/01 11:26:51;;;;;;;17.38;8.50;;;;;;;;;;5077211;28;20043;-65
2023/09/01 11:29:18;;;;;;;19.77;8.90;;;;;;;;;;5089832;28;20071;-64
2023/09/01 11:31:45;;;;;;;13.63;8.05;;;;;;;;;;5090004;28;20087;-64
2023/09/01 11:34:11;;;;;;;16.17;8.13;;;;;;;;;;5089012;28;20047;-64
2023/09/01 11:36:46;;;;;;;14.73;9.00;;;;;;;;;;5082144;28;20119;-64
2023/09/01 11:39:13;;;;;;;13.75;8.65;;;;;;;;;;5088112;28;20036;-64
2023/09/01 11:41:39;;;;;;;13.18;8.02;;;;;;;;;;5090734;28;20085;-64
2023/09/01 11:44:05;;;;;;;12.05;6.47;;;;;;;;;;5089972;28;20036;-63
2023/09/01 11:46:32;;;;;;;12.23;6.68;;;;;;;;;;5087467;28;20099;-63
2023/09/01 11:48:59;;;;;;;13.00;7.93;;;;;;;;;;5081096;28;20120;-63
2023/09/01 11:51:37;;;;;;;16.50;8.38;;;;;;;;;;5089551;28;20040;-65
2023/09/01 11:54:04;;;;;;;13.18;7.45;;;;;;;;;;5085120;28;20044;-65
2023/09/01 11:56:30;;;;;;;13.95;7.68;;;;;;;;;;5091119;28;20040;-65
2023/09/01 11:58:58;;;;;;;14.38;7.63;;;;;;;;;;5088975;28;20109;-65
2023/09/01 12:01:25;;;;;;;14.15;7.28;;;;;;;;;;5089505;28;20028;-64
2023/09/01 12:03:52;;;;;;;11.60;6.72;;;;;;;;;;5090619;28;20486;-63
2023/09/01 12:06:19;;;;;;;10.93;6.30;;;;;;;;;;5090149;28;20055;-65
2023/09/01 12:08:49;;;;;;;12.63;6.30;;;;;;;;;;5089816;28;20040;-67
2023/09/01 12:11:16;;;;;;;12.43;6.50;;;;;;;;;;5091118;28;20043;-62
2023/09/01 12:13:45;;;;;;;13.63;6.28;;;;;;;;;;5090896;28;20075;-62
2023/09/01 12:16:24;;;;;;;12.30;5.57;;;;;;;;;;5090555;28;20344;-61
2023/09/01 12:18:51;;;;;;;14.75;6.65;;;;;;;;;;5091475;28;20044;-61
2023/09/01 12:21:17;;;;;;;13.20;6.13;;;;;;;;;;5090757;28;20078;-65
2023/09/01 12:23:44;;;;;;;13.63;7.95;;;;;;;;;;5089494;28;20049;-66
2023/09/01 12:26:10;;;;;;;12.27;5.68;;;;;;;;;;5079778;28;20044;-65
2023/09/01 12:28:37;;;;;;;9.88;5.88;;;;;;;;;;5076210;28;20063;-64
2023/09/01 12:31:04;;;;;;;9.05;4.80;;;;;;;;;;5090795;28;20044;-63
2023/09/01 12:33:30;;;;;;;10.60;5.40;;;;;;;;;;5090419;28;20048;-63
2023/09/01 12:35:56;;;;;;;9.45;5.43;;;;;;;;;;5090796;28;20044;-65
2023/09/01 12:38:23;;;;;;;11.55;5.82;;;;;;;;;;5090303;28;20416;-65
2023/09/01 12:40:49;;;;;;;12.55;5.93;;;;;;;;;;5090311;28;20036;-63
2023/09/01 12:43:15;;;;;;;12.98;7.43;;;;;;;;;;5091056;28;20040;-65
2023/09/01 12:45:41;;;;;;;11.75;6.20;;;;;;;;;;5090226;28;20052;-64
2023/09/01 12:48:08;;;;;;;11.27;5.40;;;;;;;;;;5089345;28;20048;-65
2023/09/01 12:50:34;;;;;;;12.10;5.10;;;;;;;;;;5075480;28;20097;-65
2023/09/01 12:53:00;;;;;;;8.57;5.22;;;;;;;;;;5077089;28;20390;-65
2023/09/01 12:55:27;;;;;;;9.00;5.30;;;;;;;;;;5088978;28;20047;-63
2023/09/01 12:57:53;;;;;;;6.95;4.65;;;;;;;;;;5088051;28;20486;-64
2023/09/01 13:00:19;;;;;;;11.80;5.35;;;;;;;;;;5088464;28;20044;-66
2023/09/01 13:02:46;;;;;;;13.15;5.07;;;;;;;;;;5089454;28;20048;-65
2023/09/01 13:05:12;;;;;;;9.38;4.78;;;;;;;;;;5089031;28;20119;-65
2023/09/01 13:07:39;;;;;;;8.32;4.80;;;;;;;;;;5089166;28;20036;-64
2023/09/01 13:10:05;;;;;;;11.23;5.22;;;;;;;;;;5089047;28;20044;-64
2023/09/01 13:12:31;;;;;;;12.30;4.32;;;;;;;;;;5088843;28;20048;-66
2023/09/01 13:14:57;;;;;;;8.90;4.00;;;;;;;;;;5089393;28;20036;-67
2023/09/01 13:17:25;;;;;;;6.90;3.10;;;;;;;;;;5088850;28;20042;-64
2023/09/01 13:19:51;;;;;;;5.55;2.70;;;;;;;;;;5089509;28;20440;-66
2023/09/01 13:22:17;;;;;;;6.80;2.95;;;;;;;;;;5091776;28;20047;-63
2023/09/01 13:24:43;;;;;;;6.80;2.33;;;;;;;;;;5091187;28;20187;-65
2023/09/01 13:27:19;;;;;;;7.93;3.58;;;;;;;;;;5093504;28;20052;-66
2023/09/01 13:29:45;;;;;;;6.25;2.92;;;;;;;;;;5088159;28;20112;-65
2023/09/01 13:32:11;;;;;;;6.47;2.40;;;;;;;;;;5092811;28;20048;-65
2023/09/01 13:34:37;;;;;;;5.40;2.70;;;;;;;;;;5091816;28;20444;-63
2023/09/01 13:37:03;;;;;;;6.70;2.60;;;;;;;;;;5091733;28;20043;-64
2023/09/01 13:39:29;;;;;;;7.35;2.72;;;;;;;;;;5092832;28;20036;-64
2023/09/01 13:41:55;;;;;;;5.32;2.78;;;;;;;;;;5092159;28;20028;-64
2023/09/01 13:44:21;;;;;;;5.13;2.97;;;;;;;;;;5092286;28;20047;-64
2023/09/01 13:46:47;;;;;;;10.20;3.63;;;;;;;;;;5092190;28;20036;-65
2023/09/01 13:49:14;;;;;;;4.53;2.58;;;;;;;;;;5091583;28;20109;-63
2023/09/01 13:51:40;;;;;;;6.57;3.25;;;;;;;;;;5090726;28;20501;-63
2023/09/01 13:54:06;;;;;;;5.93;3.00;;;;;;;;;;5092415;28;20036;-64
2023/09/01 13:56:32;;;;;;;5.38;2.63;;;;;;;;;;5092796;28;20521;-63
2023/09/01 13:58:58;;;;;;;7.18;2.78;;;;;;;;;;5091594;28;20032;-63
2023/09/01 14:01:24;;;;;;;6.03;3.10;;;;;;;;;;5094065;28;20079;-63
2023/09/01 14:03:50;;;;;;;6.63;2.10;;;;;;;;;;5092348;28;20132;-64
2023/09/01 14:06:16;;;;;;;4.80;2.78;;;;;;;;;;5091462;28;20036;-64
2023/09/01 14:08:42;;;;;;;6.95;2.50;;;;;;;;;;5092487;28;20114;-64
2023/09/01 14:11:09;;;;;;;6.50;2.65;;;;;;;;;;5092424;28;20047;-64
2023/09/01 14:13:35;;;;;;;4.10;2.45;;;;;;;;;;5090440;28;20127;-64
2023/09/01 14:16:01;;;;;;;5.50;2.08;;;;;;;;;;5092361;28;20119;-64
2023/09/01 14:18:27;;;;;;;6.47;2.33;;;;;;;;;;5092187;28;20040;-64
2023/09/01 14:20:54;;;;;;;6.10;2.58;;;;;;;;;;5091318;28;20119;-64
2023/09/01 14:23:23;;;;;;;5.78;2.38;;;;;;;;;;5090718;28;20081;-64
2023/09/01 14:25:50;;;;;;;4.05;1.98;;;;;;;;;;5085312;28;20052;-64
2023/09/01 14:28:16;;;;;;;7.80;2.15;;;;;;;;;;5069764;28;20273;-64
2023/09/01 14:30:43;;;;;;;5.05;2.70;;;;;;;;;;5071801;28;20109;-64
2023/09/01 14:33:09;;;;;;;8.30;2.80;;;;;;;;;;5069275;28;20106;-64